Time;durP1;ratioP1;P1;durP2;ratioP2;P2;SDS_P1;SDS_P2;PMS_P1;PMS_P2;Temp;Humidity;BMP_temperature;BMP_pressure;BME280_temperature;BME280_humidity;BME280_pressure;Samples;Min_cycle;Max_cycle;Signal;HPM_P1;HPM_P2
2023/06/11 00:00:11;;;;;;;372.90;251.67;;;;;;;21.29;82.85;98837.63;320822;30;1478;-81
2023/06/11 00:00:22;;;;;;;367.27;244.50;;;;;;;21.30;83.26;98833.97;324270;30;1437;-81
2023/06/11 00:00:32;;;;;;;365.52;240.30;;;;;;;21.29;83.26;98834.97;323098;30;1267;-81
2023/06/11 00:00:43;;;;;;;368.40;246.57;;;;;;;21.30;83.19;98833.97;320294;30;1787;-81
2023/06/11 00:00:53;;;;;;;372.63;249.30;;;;;;;21.29;83.07;98832.28;318266;31;1329;-81
2023/06/11 00:01:08;;;;;;;376.33;256.05;;;;;;;21.29;83.22;98834.97;314357;31;1873;-81
2023/06/11 00:01:19;;;;;;;377.23;256.30;;;;;;;21.29;82.91;98838.47;318634;30;2372;-81
2023/06/11 00:01:29;;;;;;;376.45;255.00;;;;;;;21.29;83.04;98837.63;320775;30;2634;-81
2023/06/11 00:01:41;;;;;;;376.17;252.07;;;;;;;21.30;82.85;98845.44;319640;30;1379;-81
2023/06/11 00:01:52;;;;;;;373.95;248.45;;;;;;;21.27;83.24;98835.09;315997;31;2480;-81
2023/06/11 00:02:02;;;;;;;372.23;248.73;;;;;;;21.27;83.25;98837.75;320372;30;2752;-81
2023/06/11 00:02:15;;;;;;;371.77;251.23;;;;;;;21.27;82.88;98834.25;318097;30;1926;-81
2023/06/11 00:02:25;;;;;;;374.90;252.88;;;;;;;21.28;83.05;98836.78;318525;31;1361;-81
2023/06/11 00:02:36;;;;;;;374.80;250.90;;;;;;;21.28;82.99;98836.78;315849;31;1171;-81
2023/06/11 00:02:46;;;;;;;372.35;251.73;;;;;;;21.28;82.97;98834.13;317881;31;1830;-81
2023/06/11 00:02:56;;;;;;;371.83;249.40;;;;;;;21.29;82.96;98838.47;316431;31;795;-81
2023/06/11 00:03:07;;;;;;;370.75;248.98;;;;;;;21.28;82.72;98842.09;320054;30;2245;-81
2023/06/11 00:03:21;;;;;;;372.03;248.57;;;;;;;21.25;83.14;98839.75;314532;31;2593;-81
2023/06/11 00:03:33;;;;;;;372.73;251.30;;;;;;;21.26;83.21;98838.75;309897;31;2951;-81
2023/06/11 00:03:46;;;;;;;372.80;250.00;;;;;;;21.26;83.47;98838.75;311146;31;3326;-81
2023/06/11 00:03:57;;;;;;;372.08;246.30;;;;;;;21.26;83.37;98841.41;307916;32;1314;-82
2023/06/11 00:04:07;;;;;;;370.70;246.03;;;;;;;21.23;83.02;98834.56;310118;31;3086;-82
2023/06/11 00:04:25;;;;;;;370.13;247.57;;;;;;;21.25;83.17;98839.75;310220;31;2953;-82
2023/06/11 00:04:37;;;;;;;371.65;253.57;;;;;;;21.25;82.83;98837.06;313838;31;2077;-82
2023/06/11 00:04:49;;;;;;;369.33;252.95;;;;;;;21.24;83.32;98841.56;313735;31;1908;-82
2023/06/11 00:05:07;;;;;;;365.80;250.82;;;;;;;21.25;83.19;98834.41;308623;31;2546;-82
2023/06/11 00:05:17;;;;;;;366.80;250.13;;;;;;;21.25;83.37;98834.41;306023;31;2920;-82
2023/06/11 00:05:28;;;;;;;366.53;249.30;;;;;;;21.25;83.13;98837.06;303453;32;3453;-82
2023/06/11 00:05:39;;;;;;;371.55;252.13;;;;;;;21.24;83.08;98846.03;302023;32;1381;-82
2023/06/11 00:05:49;;;;;;;376.67;253.67;;;;;;;21.21;83.40;98838.38;301751;32;4110;-82
2023/06/11 00:06:00;;;;;;;374.95;250.30;;;;;;;21.23;83.41;98839.03;297433;32;4307;-82
2023/06/11 00:06:10;;;;;;;371.20;248.10;;;;;;;21.21;83.39;98836.56;296920;33;1510;-82
2023/06/11 00:06:22;;;;;;;371.48;244.00;;;;;;;21.23;83.26;98833.72;298134;33;4532;-82
2023/06/11 00:06:32;;;;;;;373.45;245.82;;;;;;;21.21;83.11;98835.72;298336;33;3717;-82
2023/06/11 00:06:43;;;;;;;375.80;249.00;;;;;;;21.21;83.16;98836.56;296328;33;3030;-82
2023/06/11 00:06:54;;;;;;;378.53;254.73;;;;;;;21.23;83.45;98833.72;291974;33;1245;-82
2023/06/11 00:07:05;;;;;;;378.58;252.68;;;;;;;21.20;83.33;98828.69;291486;33;2980;-82
2023/06/11 00:07:16;;;;;;;377.58;251.38;;;;;;;21.23;83.25;98839.03;289342;33;3624;-82
2023/06/11 00:07:27;;;;;;;376.33;252.10;;;;;;;21.22;83.62;98837.41;289325;34;876;-82
2023/06/11 00:07:38;;;;;;;375.23;254.75;;;;;;;21.22;83.42;98837.41;288228;34;1480;-82
2023/06/11 00:07:49;;;;;;;375.63;256.80;;;;;;;21.20;83.28;98834.03;285996;34;5277;-82
2023/06/11 00:08:00;;;;;;;375.60;256.27;;;;;;;21.19;83.53;98843.00;283581;34;6322;-82
2023/06/11 00:08:10;;;;;;;374.20;253.43;;;;;;;21.19;83.51;98843.00;284565;34;1321;-81
2023/06/11 00:08:21;;;;;;;378.97;255.07;;;;;;;21.17;83.22;98829.84;283846;34;7370;-81
2023/06/11 00:08:31;;;;;;;382.75;258.55;;;;;;;21.17;83.54;98845.81;282287;34;6156;-81
2023/06/11 00:08:41;;;;;;;386.67;261.33;;;;;;;21.16;83.83;98843.28;281533;35;1280;-81
2023/06/11 00:08:54;;;;;;;382.47;257.47;;;;;;;21.17;83.51;98844.97;278312;34;5490;-81
2023/06/11 00:09:04;;;;;;;383.38;256.10;;;;;;;21.16;83.66;98835.31;278268;35;4172;-81
2023/06/11 00:09:14;;;;;;;382.40;255.03;;;;;;;21.15;83.86;98841.63;275583;35;4854;-81
2023/06/11 00:09:25;;;;;;;386.00;258.48;;;;;;;21.17;83.62;98843.13;273813;36;1251;-81
2023/06/11 00:09:35;;;;;;;388.07;258.60;;;;;;;21.16;83.63;98841.47;273765;35;6097;-81
2023/06/11 00:09:46;;;;;;;385.33;257.07;;;;;;;21.19;83.79;98840.31;272080;36;6131;-81
2023/06/11 00:09:56;;;;;;;381.02;253.23;;;;;;;21.19;83.60;98838.50;272975;36;1248;-81
2023/06/11 00:10:07;;;;;;;377.70;253.07;;;;;;;21.19;83.60;98832.34;272504;36;7675;-81
2023/06/11 00:10:18;;;;;;;376.70;253.50;;;;;;;21.20;83.57;98837.53;270249;36;8948;-81
2023/06/11 00:12:40;;;;;;;350.61;230.12;;;;;;;21.20;83.51;98839.34;2500588;27;20501;-81
2023/06/11 00:12:51;;;;;;;363.20;245.83;;;;;;;21.20;83.63;98834.84;351509;28;1262;-81
2023/06/11 00:13:01;;;;;;;364.20;247.73;;;;;;;21.20;83.67;98831.34;348270;28;1302;-82
2023/06/11 00:13:11;;;;;;;367.25;249.73;;;;;;;21.20;83.22;98839.34;347202;28;1436;-80
2023/06/11 00:13:22;;;;;;;365.37;248.87;;;;;;;21.19;83.54;98832.34;347429;28;924;-80
2023/06/11 00:13:32;;;;;;;366.77;248.05;;;;;;;21.19;83.41;98832.34;347568;28;1371;-80
2023/06/11 00:13:42;;;;;;;365.57;246.93;;;;;;;21.19;83.22;98845.66;348597;28;1301;-80
2023/06/11 00:13:53;;;;;;;367.27;246.47;;;;;;;21.20;83.63;98834.03;347392;28;1429;-80
2023/06/11 00:14:04;;;;;;;367.56;246.76;;;;;;;21.20;83.33;98836.69;347325;28;1399;-80
2023/06/11 00:14:14;;;;;;;371.13;248.60;;;;;;;21.21;83.09;98841.06;347323;28;1276;-80
2023/06/11 00:14:25;;;;;;;374.03;249.30;;;;;;;21.21;83.17;98836.56;346446;28;1205;-80
2023/06/11 00:14:35;;;;;;;374.55;250.38;;;;;;;21.23;83.09;98839.03;345955;28;1352;-80
2023/06/11 00:14:46;;;;;;;370.13;248.80;;;;;;;21.22;83.43;98832.09;345883;28;1313;-80
2023/06/11 00:14:56;;;;;;;367.48;247.40;;;;;;;21.23;83.18;98847.03;345988;28;1307;-80
2023/06/11 00:15:07;;;;;;;369.30;246.27;;;;;;;21.23;83.04;98836.38;346016;28;1202;-82
2023/06/11 00:15:17;;;;;;;369.77;244.77;;;;;;;21.23;83.33;98839.03;344549;28;1440;-82
2023/06/11 00:15:28;;;;;;;368.92;245.23;;;;;;;21.23;82.97;98839.03;343326;28;1352;-81
2023/06/11 00:15:38;;;;;;;367.80;244.80;;;;;;;21.23;82.95;98834.56;342100;28;1211;-81
2023/06/11 00:15:49;;;;;;;370.73;246.83;;;;;;;21.23;82.68;98839.03;343204;28;1362;-81
2023/06/11 00:15:59;;;;;;;370.08;243.90;;;;;;;21.22;82.71;98837.41;344625;28;1328;-81
2023/06/11 00:16:12;;;;;;;371.57;245.13;;;;;;;21.23;82.86;98839.03;340917;29;1369;-81
2023/06/11 00:16:22;;;;;;;369.13;241.45;;;;;;;21.21;82.58;98839.22;346594;28;1300;-81
2023/06/11 00:16:33;;;;;;;369.98;240.48;;;;;;;21.19;83.10;98840.31;347580;28;1335;-81
2023/06/11 00:16:43;;;;;;;371.37;242.90;;;;;;;21.21;82.99;98835.72;347458;28;1214;-81
2023/06/11 00:16:56;;;;;;;368.75;246.02;;;;;;;21.21;83.28;98846.38;344423;28;1216;-81
2023/06/11 00:17:07;;;;;;;366.55;249.15;;;;;;;21.19;82.98;98846.50;347356;28;1305;-80
2023/06/11 00:17:17;;;;;;;367.27;250.53;;;;;;;21.19;83.10;98843.00;348690;28;1327;-80
2023/06/11 00:17:29;;;;;;;366.13;245.90;;;;;;;21.19;83.10;98841.16;344707;28;1523;-80
2023/06/11 00:17:39;;;;;;;366.20;242.43;;;;;;;21.20;82.66;98842.00;344706;28;1319;-80
2023/06/11 00:17:50;;;;;;;365.77;240.98;;;;;;;21.18;83.20;98841.31;346145;28;972;-80
2023/06/11 00:18:01;;;;;;;368.07;248.07;;;;;;;21.19;82.80;98843.00;346905;28;1267;-82
2023/06/11 00:18:11;;;;;;;367.65;250.40;;;;;;;21.20;82.50;98844.66;344226;28;3213;-81
2023/06/11 00:18:23;;;;;;;367.17;249.10;;;;;;;21.20;83.13;98844.66;345590;28;3354;-81
2023/06/11 00:18:33;;;;;;;372.05;252.80;;;;;;;21.19;83.05;98843.00;343096;28;1497;-81
2023/06/11 00:18:43;;;;;;;371.33;251.50;;;;;;;21.19;82.89;98843.00;342351;28;1270;-81
2023/06/11 00:18:55;;;;;;;373.03;252.03;;;;;;;21.20;82.70;98834.03;340678;29;975;-82
2023/06/11 00:19:05;;;;;;;371.52;246.98;;;;;;;21.20;82.60;98845.50;340384;28;1294;-81
2023/06/11 00:19:17;;;;;;;371.25;245.90;;;;;;;21.20;82.82;98844.66;338420;29;1207;-83
2023/06/11 00:19:29;;;;;;;368.60;241.77;;;;;;;21.20;82.68;98845.50;339356;29;1268;-81
2023/06/11 00:19:40;;;;;;;366.98;238.48;;;;;;;21.20;82.68;98842.00;340892;29;1473;-82
2023/06/11 00:19:52;;;;;;;369.02;245.27;;;;;;;21.20;82.58;98844.66;340276;29;1345;-82
2023/06/11 00:20:09;;;;;;;369.70;246.05;;;;;;;21.20;82.89;98844.66;338559;29;1465;-82
2023/06/11 00:20:20;;;;;;;368.55;247.07;;;;;;;21.21;82.81;98838.38;340432;28;1407;-82
2023/06/11 00:20:32;;;;;;;369.40;248.15;;;;;;;21.21;82.36;98836.56;337849;29;1437;-82
2023/06/11 00:20:43;;;;;;;368.60;247.25;;;;;;;21.22;83.14;98845.38;336686;29;1311;-82
2023/06/11 00:20:58;;;;;;;366.30;244.00;;;;;;;21.20;82.58;98842.00;336374;29;1523;-82
2023/06/11 00:21:09;;;;;;;364.35;244.63;;;;;;;21.20;82.84;98844.66;338654;29;1453;-82
2023/06/11 00:21:20;;;;;;;366.48;249.30;;;;;;;21.20;82.86;98842.00;336188;29;1513;-82
2023/06/11 00:21:31;;;;;;;366.30;247.40;;;;;;;21.16;83.03;98837.97;335382;29;1599;-82
2023/06/11 00:21:43;;;;;;;369.95;245.43;;;;;;;21.15;82.98;98837.13;334323;29;1378;-82
2023/06/11 00:21:56;;;;;;;368.42;244.07;;;;;;;21.15;82.97;98842.44;336763;29;1335;-81
2023/06/11 00:22:08;;;;;;;369.30;243.02;;;;;;;21.14;82.98;98834.63;334140;29;1379;-81
2023/06/11 00:22:19;;;;;;;371.48;249.98;;;;;;;21.13;82.97;98838.25;332139;29;1039;-81
2023/06/11 00:22:31;;;;;;;373.70;253.83;;;;;;;21.14;82.79;98839.94;330537;29;1515;-81
2023/06/11 00:22:42;;;;;;;374.60;254.23;;;;;;;21.15;82.55;98838.94;331766;29;1503;-81
2023/06/11 00:22:52;;;;;;;375.38;251.80;;;;;;;21.14;82.86;98842.59;331159;29;1655;-81
2023/06/11 00:23:02;;;;;;;374.37;249.47;;;;;;;21.16;83.14;98840.63;330431;29;1757;-81
2023/06/11 00:23:13;;;;;;;375.88;252.60;;;;;;;21.14;82.99;98840.78;327340;30;1218;-81
2023/06/11 00:23:24;;;;;;;376.13;251.50;;;;;;;21.15;82.91;98845.13;326287;30;1750;-81
2023/06/11 00:23:37;;;;;;;375.48;251.73;;;;;;;21.15;82.78;98838.94;326503;29;2068;-81
2023/06/11 00:23:48;;;;;;;372.17;250.88;;;;;;;21.17;82.72;98839.63;325496;29;1673;-81
2023/06/11 00:23:58;;;;;;;368.92;249.27;;;;;;;21.16;82.67;98840.63;328248;30;1499;-81
2023/06/11 00:24:12;;;;;;;365.05;247.60;;;;;;;21.16;83.30;98846.78;330594;29;1222;-81
2023/06/11 00:24:22;;;;;;;361.15;242.90;;;;;;;21.15;83.09;98836.28;329961;29;1416;-81
2023/06/11 00:24:33;;;;;;;361.40;242.57;;;;;;;21.14;82.84;98839.94;325908;30;1731;-81
2023/06/11 00:24:43;;;;;;;364.58;245.55;;;;;;;21.14;83.12;98839.94;324433;30;883;-81
2023/06/11 00:24:53;;;;;;;368.97;249.93;;;;;;;21.16;83.10;98851.28;327077;30;2038;-81
2023/06/11 00:25:06;;;;;;;372.23;251.38;;;;;;;21.13;83.29;98838.25;325318;30;2310;-81
2023/06/11 00:25:16;;;;;;;374.70;250.23;;;;;;;21.14;83.10;98848.75;325490;30;2414;-81
2023/06/11 00:25:26;;;;;;;377.20;251.63;;;;;;;21.13;82.69;98836.44;326800;30;1293;-81
2023/06/11 00:25:37;;;;;;;380.50;254.52;;;;;;;21.16;83.13;98843.28;320695;30;2288;-81
2023/06/11 00:25:47;;;;;;;380.13;253.83;;;;;;;21.15;82.99;98841.63;322017;30;2625;-81
2023/06/11 00:25:58;;;;;;;375.80;249.95;;;;;;;21.15;82.94;98837.13;321285;30;1257;-82
2023/06/11 00:26:08;;;;;;;375.20;249.73;;;;;;;21.15;83.04;98836.28;323072;30;1806;-81
2023/06/11 00:26:19;;;;;;;373.45;249.00;;;;;;;21.14;83.31;98840.78;320930;30;1400;-81
2023/06/11 00:26:29;;;;;;;375.67;250.40;;;;;;;21.13;83.07;98841.75;322470;30;2110;-81
2023/06/11 00:26:40;;;;;;;373.27;245.43;;;;;;;21.13;83.21;98838.25;322467;30;1196;-81
2023/06/11 00:26:51;;;;;;;377.30;249.13;;;;;;;21.08;82.82;98829.88;319313;30;2389;-81
2023/06/11 00:27:02;;;;;;;377.83;249.13;;;;;;;21.07;83.04;98831.72;317459;30;2778;-81
2023/06/11 00:27:12;;;;;;;377.55;250.38;;;;;;;21.06;83.44;98834.50;315290;31;2987;-81
2023/06/11 00:27:23;;;;;;;376.73;249.47;;;;;;;21.06;83.24;98837.16;312665;31;3494;-81
2023/06/11 00:27:35;;;;;;;374.63;249.93;;;;;;;21.07;83.27;98838.84;307674;31;3245;-81
2023/06/11 00:27:45;;;;;;;376.10;250.43;;;;;;;21.07;82.95;98833.53;307249;31;2861;-82
2023/06/11 00:27:55;;;;;;;373.85;248.13;;;;;;;21.06;83.42;98835.34;305346;32;3576;-81
2023/06/11 00:28:07;;;;;;;373.37;247.27;;;;;;;21.08;82.58;98835.19;307467;31;2950;-81
2023/06/11 00:28:17;;;;;;;369.33;244.68;;;;;;;21.08;83.22;98836.03;304612;32;2424;-82
2023/06/11 00:28:28;;;;;;;366.73;244.73;;;;;;;21.10;83.10;98838.56;305214;32;1034;-82
2023/06/11 00:28:38;;;;;;;366.17;244.67;;;;;;;21.09;82.66;98839.53;301705;32;2398;-82
2023/06/11 00:28:48;;;;;;;368.20;248.52;;;;;;;21.08;82.75;98843.19;299198;32;3451;-81
2023/06/11 00:28:59;;;;;;;370.90;249.60;;;;;;;21.08;82.49;98837.88;297987;33;1230;-81
2023/06/11 00:29:09;;;;;;;372.85;251.32;;;;;;;21.08;82.72;98832.53;293051;33;780;-81
2023/06/11 00:29:20;;;;;;;375.47;247.27;;;;;;;21.09;82.45;98837.72;294012;33;4542;-81
2023/06/11 00:29:30;;;;;;;376.83;246.98;;;;;;;21.10;82.51;98833.22;295206;32;4581;-81
2023/06/11 00:29:40;;;;;;;386.63;249.70;;;;;;;21.10;82.78;98835.91;294949;33;1273;-81
2023/06/11 00:29:52;;;;;;;385.45;248.55;;;;;;;21.10;82.55;98843.88;296056;33;5138;-81
2023/06/11 00:30:04;;;;;;;383.63;247.73;;;;;;;21.09;82.58;98836.88;294102;33;4677;-81
2023/06/11 00:30:16;;;;;;;376.67;245.82;;;;;;;21.10;82.36;98841.22;290617;33;3700;-81
2023/06/11 00:30:27;;;;;;;371.65;245.18;;;;;;;21.10;82.58;98833.22;291090;34;1334;-81
2023/06/11 00:30:37;;;;;;;369.00;243.02;;;;;;;21.10;82.64;98839.41;292883;33;3578;-81
2023/06/11 00:30:48;;;;;;;368.37;242.40;;;;;;;21.10;82.76;98838.56;290747;33;3600;-81
2023/06/11 00:31:00;;;;;;;369.45;243.63;;;;;;;21.09;82.27;98836.88;288170;34;1303;-81
2023/06/11 00:31:10;;;;;;;369.42;244.43;;;;;;;21.08;82.87;98837.88;288170;34;1506;-82
2023/06/11 00:31:21;;;;;;;370.67;247.60;;;;;;;21.09;82.76;98836.88;287501;34;4958;-82
2023/06/11 00:31:31;;;;;;;371.15;250.30;;;;;;;21.08;82.78;98838.69;284539;34;6495;-82
2023/06/11 00:31:42;;;;;;;372.33;254.47;;;;;;;21.07;82.69;98838.84;282595;35;1203;-82
2023/06/11 00:31:52;;;;;;;373.70;253.68;;;;;;;21.07;82.75;98838.84;281534;34;7582;-81
2023/06/11 00:32:03;;;;;;;378.57;254.23;;;;;;;21.07;82.79;98839.69;282425;34;6562;-81
2023/06/11 00:32:13;;;;;;;381.90;254.18;;;;;;;21.07;82.91;98841.50;283074;34;1230;-81
2023/06/11 00:32:24;;;;;;;384.47;255.07;;;;;;;21.07;82.54;98839.69;280430;34;5811;-81
2023/06/11 00:32:37;;;;;;;379.92;252.88;;;;;;;21.07;82.87;98837.03;282493;34;5298;-80
2023/06/11 00:32:47;;;;;;;376.70;251.13;;;;;;;21.08;83.09;98835.19;281217;34;5528;-80
2023/06/11 00:32:59;;;;;;;376.98;253.43;;;;;;;21.07;82.80;98833.53;278465;35;1029;-80
2023/06/11 00:33:10;;;;;;;376.40;252.65;;;;;;;21.10;82.86;98838.56;280004;35;1393;-80
2023/06/11 00:33:20;;;;;;;375.00;253.43;;;;;;;21.10;82.68;98833.22;274961;35;7033;-80
2023/06/11 00:33:31;;;;;;;374.00;250.52;;;;;;;21.09;82.85;98834.22;271062;35;7286;-82
2023/06/11 00:33:41;;;;;;;373.83;252.03;;;;;;;21.09;82.88;98839.53;273052;36;1006;-82
2023/06/11 00:35:37;;;;;;;345.39;217.00;;;;;;;21.07;83.23;98830.88;2502450;27;20261;-81
2023/06/11 00:35:47;;;;;;;363.45;241.50;;;;;;;21.07;83.22;98833.53;351596;28;1077;-81
2023/06/11 00:35:57;;;;;;;366.43;244.00;;;;;;;21.06;83.13;98831.84;348971;28;880;-81
2023/06/11 00:36:08;;;;;;;367.65;243.68;;;;;;;21.08;83.42;98829.88;347604;28;881;-81
2023/06/11 00:36:20;;;;;;;367.07;243.37;;;;;;;21.08;83.43;98837.88;348781;28;1215;-81
2023/06/11 00:36:32;;;;;;;366.52;245.38;;;;;;;21.06;83.50;98827.38;349223;28;2795;-81
2023/06/11 00:36:43;;;;;;;366.70;246.40;;;;;;;21.05;83.21;98831.00;348514;28;3043;-81
2023/06/11 00:36:53;;;;;;;366.02;242.80;;;;;;;21.06;83.15;98837.16;349387;28;3334;-81
2023/06/11 00:37:04;;;;;;;369.00;240.17;;;;;;;21.05;83.21;98835.50;344998;28;1492;-81
2023/06/11 00:37:14;;;;;;;366.02;236.88;;;;;;;21.06;83.25;98834.50;347539;28;1211;-81
2023/06/11 00:37:26;;;;;;;367.70;241.07;;;;;;;21.07;83.40;98833.53;348532;28;1195;-81
2023/06/11 00:37:36;;;;;;;367.77;244.13;;;;;;;21.06;83.05;98835.34;347421;28;1298;-81
2023/06/11 00:37:47;;;;;;;370.87;248.00;;;;;;;21.06;83.19;98831.84;349422;28;1449;-81
2023/06/11 00:37:57;;;;;;;367.52;242.98;;;;;;;21.05;83.58;98840.81;350093;28;1202;-81
2023/06/11 00:38:09;;;;;;;368.03;245.87;;;;;;;21.04;83.60;98828.50;346388;28;1289;-81
2023/06/11 00:38:20;;;;;;;369.10;246.23;;;;;;;21.06;83.65;98831.84;348791;28;1510;-81
2023/06/11 00:38:31;;;;;;;370.95;245.63;;;;;;;21.06;83.27;98838.00;347368;28;1507;-81
2023/06/11 00:38:41;;;;;;;372.70;243.53;;;;;;;21.05;83.62;98830.19;346162;28;849;-81
2023/06/11 00:38:51;;;;;;;370.77;239.65;;;;;;;21.05;83.23;98835.50;346039;28;1312;-81
2023/06/11 00:39:02;;;;;;;373.77;237.90;;;;;;;21.05;83.57;98839.00;346536;28;1197;-81
2023/06/11 00:39:13;;;;;;;372.27;236.85;;;;;;;21.07;83.55;98833.53;347346;28;1239;-81
2023/06/11 00:39:23;;;;;;;371.70;238.30;;;;;;;21.05;83.22;98832.84;344499;28;1424;-82
2023/06/11 00:39:34;;;;;;;368.67;243.43;;;;;;;21.06;83.41;98837.16;345770;28;1439;-82
2023/06/11 00:39:44;;;;;;;367.33;244.93;;;;;;;21.05;83.38;98838.16;345653;28;1268;-81
2023/06/11 00:39:55;;;;;;;366.67;242.85;;;;;;;21.05;83.42;98843.47;347419;28;1356;-81
2023/06/11 00:40:06;;;;;;;367.37;241.87;;;;;;;21.03;83.46;98842.78;343538;28;1147;-81
2023/06/11 00:40:16;;;;;;;367.02;240.73;;;;;;;21.02;83.69;98841.94;344099;28;1291;-81
2023/06/11 00:40:26;;;;;;;366.63;241.15;;;;;;;21.03;83.77;98837.47;346029;28;1351;-81
2023/06/11 00:40:37;;;;;;;366.90;241.87;;;;;;;21.02;83.61;98830.47;342049;28;1352;-81
2023/06/11 00:40:48;;;;;;;366.48;243.10;;;;;;;21.02;83.67;98833.13;344988;28;1288;-80
2023/06/11 00:40:58;;;;;;;367.63;244.07;;;;;;;21.02;83.51;98835.78;347200;28;1531;-81
2023/06/11 00:41:08;;;;;;;366.75;242.48;;;;;;;21.01;83.30;98839.44;348683;28;1232;-81
2023/06/11 00:41:20;;;;;;;369.33;241.37;;;;;;;21.02;83.33;98838.44;345973;28;1230;-81
2023/06/11 00:41:30;;;;;;;367.95;239.48;;;;;;;21.03;83.58;98837.47;343766;28;1307;-81
2023/06/11 00:41:45;;;;;;;368.23;239.63;;;;;;;21.03;83.58;98840.13;339628;28;1316;-81
2023/06/11 00:41:57;;;;;;;365.05;238.80;;;;;;;21.02;83.41;98841.13;336612;29;1532;-81
2023/06/11 00:42:10;;;;;;;366.33;240.85;;;;;;;21.01;83.72;98834.97;337976;29;1406;-81
2023/06/11 00:42:20;;;;;;;364.23;238.30;;;;;;;21.01;83.44;98834.13;338033;29;1439;-81
2023/06/11 00:42:33;;;;;;;364.53;238.50;;;;;;;21.01;83.20;98831.47;339314;29;1270;-81
2023/06/11 00:42:45;;;;;;;364.60;240.02;;;;;;;21.01;83.64;98834.97;338145;29;1183;-81
2023/06/11 00:42:56;;;;;;;365.42;239.90;;;;;;;21.00;83.60;98832.44;336697;29;1425;-81
2023/06/11 00:43:07;;;;;;;366.92;240.02;;;;;;;20.99;83.29;98842.25;334175;29;1302;-81
2023/06/11 00:43:21;;;;;;;368.73;240.77;;;;;;;20.98;83.43;98839.72;336543;29;1415;-81
2023/06/11 00:43:31;;;;;;;366.95;241.48;;;;;;;20.92;83.72;98835.84;336106;29;1400;-81
2023/06/11 00:43:42;;;;;;;367.87;240.27;;;;;;;20.93;83.74;98838.34;336733;29;1362;-81
2023/06/11 00:43:54;;;;;;;370.63;241.90;;;;;;;20.92;84.00;98839.34;336763;29;1334;-81
2023/06/11 00:44:05;;;;;;;373.77;243.75;;;;;;;20.91;84.10;98837.66;338641;29;1468;-81
2023/06/11 00:44:21;;;;;;;372.80;243.93;;;;;;;20.92;84.05;98834.00;337267;29;1555;-81
2023/06/11 00:44:31;;;;;;;368.98;237.80;;;;;;;20.92;84.00;98831.34;337408;29;1425;-81
2023/06/11 00:44:42;;;;;;;364.67;234.75;;;;;;;20.92;83.80;98836.66;337112;29;1207;-81
2023/06/11 00:44:54;;;;;;;362.47;234.00;;;;;;;20.91;83.59;98835.00;335401;29;1404;-81
2023/06/11 00:45:05;;;;;;;361.27;235.95;;;;;;;20.92;83.84;98839.34;337299;29;1486;-82
2023/06/11 00:45:16;;;;;;;363.10;238.52;;;;;;;20.93;83.80;98833.03;334495;29;1302;-82
2023/06/11 00:45:27;;;;;;;363.80;238.82;;;;;;;20.92;84.10;98836.66;333104;29;1609;-81
2023/06/11 00:45:37;;;;;;;366.70;241.83;;;;;;;20.91;84.02;98835.00;334309;29;846;-82
2023/06/11 00:45:51;;;;;;;369.20;242.23;;;;;;;20.91;84.04;98835.00;330930;29;3690;-81
2023/06/11 00:46:02;;;;;;;371.75;244.05;;;;;;;20.90;83.83;98833.31;330675;29;3168;-81
2023/06/11 00:46:12;;;;;;;376.58;245.43;;;;;;;20.89;83.90;98836.97;328972;29;2024;-81
2023/06/11 00:46:23;;;;;;;374.47;244.57;;;;;;;20.89;84.34;98836.13;331449;29;3404;-81
2023/06/11 00:46:37;;;;;;;372.40;244.55;;;;;;;20.88;84.22;98832.63;330198;29;2150;-81
2023/06/11 00:46:50;;;;;;;361.33;241.02;;;;;;;20.89;83.92;98836.13;330389;29;1571;-81
2023/06/11 00:47:01;;;;;;;361.42;239.80;;;;;;;20.87;84.34;98832.78;330958;29;1325;-82
2023/06/11 00:47:11;;;;;;;363.90;241.50;;;;;;;20.88;84.35;98835.28;332372;29;1196;-81
2023/06/11 00:47:22;;;;;;;366.77;241.20;;;;;;;20.88;84.29;98835.28;329242;29;1474;-81
2023/06/11 00:47:32;;;;;;;370.93;243.23;;;;;;;20.88;84.15;98835.28;326143;29;1992;-81
2023/06/11 00:47:43;;;;;;;374.85;243.98;;;;;;;20.87;84.02;98835.44;323510;30;2371;-81
2023/06/11 00:47:53;;;;;;;379.03;248.67;;;;;;;20.86;84.30;98839.91;326756;30;1335;-81
2023/06/11 00:48:04;;;;;;;377.15;246.38;;;;;;;20.85;84.29;98832.91;321681;30;2401;-81
2023/06/11 00:48:15;;;;;;;370.63;243.73;;;;;;;20.84;84.42;98836.56;323983;30;2405;-81
2023/06/11 00:48:26;;;;;;;366.50;240.32;;;;;;;20.84;84.04;98839.22;323876;30;2408;-81
2023/06/11 00:48:38;;;;;;;367.13;241.57;;;;;;;20.85;84.22;98840.06;319783;30;1269;-81
2023/06/11 00:48:49;;;;;;;365.38;241.82;;;;;;;20.83;84.47;98845.53;316085;31;2548;-81
2023/06/11 00:49:00;;;;;;;364.58;242.05;;;;;;;20.82;84.70;98840.34;317260;31;1684;-81
2023/06/11 00:49:11;;;;;;;367.23;243.68;;;;;;;20.80;84.59;98843.16;314527;31;1352;-81
2023/06/11 00:49:21;;;;;;;368.92;242.23;;;;;;;20.78;84.45;98833.69;318500;30;1435;-81
2023/06/11 00:49:32;;;;;;;372.47;243.47;;;;;;;20.77;84.93;98838.16;313959;31;2013;-80
2023/06/11 00:49:43;;;;;;;369.02;240.90;;;;;;;20.76;84.71;98841.81;309165;31;3433;-80
2023/06/11 00:49:54;;;;;;;368.33;238.60;;;;;;;20.75;84.44;98839.28;306203;32;1356;-80
2023/06/11 00:50:05;;;;;;;366.30;236.57;;;;;;;20.75;84.47;98834.81;314851;31;3382;-80
2023/06/11 00:50:16;;;;;;;370.10;238.23;;;;;;;20.75;84.67;98844.63;313431;31;3083;-81
2023/06/11 00:50:28;;;;;;;368.48;238.60;;;;;;;20.75;84.53;98840.13;308198;31;3588;-81
2023/06/11 00:50:45;;;;;;;372.60;239.13;;;;;;;20.75;84.50;98837.47;305444;32;1568;-81
2023/06/11 00:50:55;;;;;;;376.85;241.75;;;;;;;20.75;84.33;98840.13;303455;32;3137;-81
2023/06/11 00:51:06;;;;;;;370.90;238.10;;;;;;;20.73;84.49;98839.44;303113;32;1363;-81
2023/06/11 00:51:25;;;;;;;369.67;237.57;;;;;;;20.73;84.62;98843.91;300696;32;2692;-80
2023/06/11 00:51:35;;;;;;;369.45;241.90;;;;;;;20.72;84.83;98848.41;297062;33;941;-80
2023/06/11 00:51:46;;;;;;;366.70;238.63;;;;;;;20.71;84.79;98838.75;298308;32;2494;-80
2023/06/11 00:51:57;;;;;;;370.37;243.17;;;;;;;20.72;84.55;98839.59;294189;32;3631;-80
2023/06/11 00:52:12;;;;;;;373.95;240.98;;;;;;;20.74;84.60;98838.44;294971;33;1324;-80
2023/06/11 00:52:22;;;;;;;378.33;241.20;;;;;;;20.74;84.78;98843.78;293974;33;1384;-80
2023/06/11 00:52:32;;;;;;;382.03;240.90;;;;;;;20.75;84.52;98844.63;294201;33;4673;-82
2023/06/11 00:52:43;;;;;;;379.58;239.77;;;;;;;20.75;84.75;98840.13;292017;33;5335;-81
2023/06/11 00:52:53;;;;;;;378.03;241.27;;;;;;;20.75;84.75;98845.44;289742;34;1282;-81
2023/06/11 00:53:04;;;;;;;372.17;239.67;;;;;;;20.77;84.45;98843.47;291771;33;3632;-82
2023/06/11 00:53:15;;;;;;;371.92;239.50;;;;;;;20.78;84.26;98845.16;288796;34;3659;-81
2023/06/11 00:53:25;;;;;;;373.05;242.32;;;;;;;20.77;84.31;98843.47;286291;34;3062;-80
2023/06/11 00:53:36;;;;;;;371.52;241.20;;;;;;;20.77;84.63;98843.47;285391;34;1265;-80
2023/06/11 00:53:47;;;;;;;368.77;236.10;;;;;;;20.76;84.53;98836.50;289014;33;3277;-80
2023/06/11 00:53:57;;;;;;;365.42;231.77;;;;;;;20.79;84.58;98846.84;286203;34;4009;-81
2023/06/11 00:54:12;;;;;;;365.17;234.53;;;;;;;20.80;84.54;98845.81;283064;34;1389;-82
2023/06/11 00:54:23;;;;;;;364.05;238.13;;;;;;;20.80;84.45;98837.84;283069;34;1376;-81
2023/06/11 00:54:34;;;;;;;366.40;240.07;;;;;;;20.79;84.28;98846.84;287189;34;6286;-81
2023/06/11 00:54:44;;;;;;;367.37;240.97;;;;;;;20.81;84.44;98842.19;285916;34;6375;-81
2023/06/11 00:54:55;;;;;;;368.23;243.85;;;;;;;20.79;84.28;98841.50;287272;34;1412;-81
2023/06/11 00:55:05;;;;;;;367.43;242.57;;;;;;;20.79;84.33;98835.34;285034;34;6810;-81